createdAt,value
2019-05-20T00:01:19.467Z,1.10
2019-05-20T00:03:46.131Z,1.02
2019-05-20T00:06:12.744Z,0.90
2019-05-20T00:08:39.338Z,1.50
2019-05-20T00:11:05.883Z,1.30
2019-05-20T00:13:32.417Z,1.20
2019-05-20T00:15:58.954Z,1.25
2019-05-20T00:18:25.496Z,1.20
2019-05-20T00:20:52.028Z,1.20
2019-05-20T00:23:18.564Z,1.02
2019-05-20T00:25:45.186Z,0.98
2019-05-20T00:28:11.729Z,1.20
2019-05-20T00:30:38.285Z,1.10
2019-05-20T00:33:04.818Z,1.07
2019-05-20T00:35:31.359Z,1.35
2019-05-20T00:37:57.909Z,0.95
2019-05-20T00:40:24.438Z,0.80
2019-05-20T00:42:51.088Z,1.00
2019-05-20T00:45:17.620Z,1.05
2019-05-20T00:47:44.221Z,0.80
2019-05-20T00:50:11.063Z,1.00
2019-05-20T00:52:37.586Z,1.00
2019-05-20T00:55:06.357Z,1.10
2019-05-20T00:57:32.891Z,1.10
2019-05-20T00:59:59.479Z,1.07
2019-05-20T01:02:26.027Z,1.30
2019-05-20T01:04:52.664Z,1.45
2019-05-20T01:07:19.184Z,1.02
2019-05-20T01:09:45.729Z,1.42
2019-05-20T01:12:12.334Z,1.62
2019-05-20T01:14:39.055Z,1.60
2019-05-20T01:17:05.719Z,1.85
2019-05-20T01:19:32.289Z,2.50
2019-05-20T01:21:58.796Z,2.25
2019-05-20T01:24:25.420Z,1.50
2019-05-20T01:26:52.062Z,2.00
2019-05-20T01:29:18.595Z,2.58
2019-05-20T01:31:45.130Z,2.10
2019-05-20T01:34:11.682Z,2.50
2019-05-20T01:36:38.300Z,2.50
2019-05-20T01:39:05.743Z,2.60
2019-05-20T01:41:32.488Z,2.65
2019-05-20T01:43:59.017Z,2.42
2019-05-20T01:46:25.533Z,2.20
2019-05-20T01:48:52.130Z,2.12
2019-05-20T01:51:18.764Z,2.67
2019-05-20T01:53:45.305Z,2.70
2019-05-20T01:56:11.901Z,2.95
2019-05-20T01:58:39.663Z,2.67
2019-05-20T02:01:06.566Z,3.05
2019-05-20T02:03:34.082Z,2.80
2019-05-20T02:06:00.627Z,3.17
2019-05-20T02:08:27.255Z,2.87
2019-05-20T02:10:56.543Z,3.37
2019-05-20T02:13:24.124Z,2.85
2019-05-20T02:16:03.705Z,3.22
2019-05-20T02:18:30.274Z,3.55
2019-05-20T02:20:56.812Z,2.70
2019-05-20T02:23:23.330Z,3.50
2019-05-20T02:25:49.864Z,3.67
2019-05-20T02:28:16.477Z,3.33
2019-05-20T02:30:43.015Z,3.47
2019-05-20T02:33:09.931Z,3.83
2019-05-20T02:35:36.562Z,4.25
2019-05-20T02:38:03.097Z,4.15
2019-05-20T02:40:29.640Z,5.83
2019-05-20T02:42:56.466Z,7.00
2019-05-20T02:45:23.116Z,8.93
2019-05-20T02:47:49.640Z,9.28
2019-05-20T02:50:16.325Z,10.18
2019-05-20T02:52:42.883Z,11.78
2019-05-20T02:55:09.616Z,10.90
2019-05-20T02:57:36.145Z,10.63
2019-05-20T03:00:05.482Z,12.33
2019-05-20T03:02:32.063Z,10.93
2019-05-20T03:04:58.582Z,11.30
2019-05-20T03:07:25.098Z,11.55
2019-05-20T03:09:51.658Z,12.03
2019-05-20T03:12:18.197Z,12.43
2019-05-20T03:14:44.719Z,12.70
2019-05-20T03:17:11.307Z,10.93
2019-05-20T03:19:37.840Z,11.73
2019-05-20T03:22:04.484Z,11.28
2019-05-20T03:24:31.029Z,13.10
2019-05-20T03:26:57.571Z,12.85
2019-05-20T03:29:24.168Z,12.90
2019-05-20T03:31:50.780Z,13.70
2019-05-20T03:34:42.340Z,14.23
2019-05-20T03:36:45.796Z,11.33
2019-05-20T03:39:13.400Z,14.75
2019-05-20T03:41:39.918Z,14.43
2019-05-20T03:44:06.449Z,13.55
2019-05-20T03:46:32.968Z,16.05
2019-05-20T03:48:59.534Z,15.45
2019-05-20T03:51:26.068Z,16.73
2019-05-20T03:53:52.601Z,18.30
2019-05-20T03:56:19.139Z,19.27
2019-05-20T03:58:45.656Z,18.87
2019-05-20T04:01:12.271Z,18.77
2019-05-20T04:03:38.846Z,18.52
2019-05-20T04:06:05.494Z,19.48
2019-05-20T04:08:31.998Z,18.57
2019-05-20T04:10:58.539Z,16.60
2019-05-20T04:13:25.158Z,17.23
2019-05-20T04:15:51.726Z,19.10
2019-05-20T04:18:18.238Z,18.37
2019-05-20T04:20:44.772Z,17.70
2019-05-20T04:23:11.302Z,17.37
2019-05-20T04:25:37.868Z,19.02
2019-05-20T04:28:04.418Z,17.95
2019-05-20T04:30:30.955Z,18.02
2019-05-20T04:32:57.482Z,19.12
2019-05-20T04:35:24.022Z,19.90
2019-05-20T04:37:50.640Z,18.45
2019-05-20T04:40:17.394Z,18.87
2019-05-20T04:42:43.929Z,18.92
2019-05-20T04:45:11.462Z,16.65
2019-05-20T04:47:38.116Z,17.77
2019-05-20T04:50:07.590Z,17.52
2019-05-20T04:52:34.125Z,17.55
2019-05-20T04:55:00.678Z,15.83
2019-05-20T04:57:27.181Z,13.32
2019-05-20T04:59:53.724Z,15.53
2019-05-20T05:02:20.255Z,18.15
2019-05-20T05:04:46.818Z,16.32
2019-05-20T05:07:13.359Z,16.95
2019-05-20T05:09:39.894Z,16.10
2019-05-20T05:12:06.445Z,17.52
2019-05-20T05:14:33.138Z,17.00
2019-05-20T05:16:59.818Z,17.75
2019-05-20T05:19:26.673Z,17.20
2019-05-20T05:21:53.292Z,15.00
2019-05-20T05:24:19.920Z,17.02
2019-05-20T05:26:47.972Z,14.63
2019-05-20T05:29:14.603Z,14.65
2019-05-20T05:31:41.645Z,15.90
2019-05-20T05:34:08.177Z,18.07
2019-05-20T05:36:34.703Z,19.57
2019-05-20T05:39:01.223Z,17.40
2019-05-20T05:41:27.735Z,18.30
2019-05-20T05:43:54.282Z,19.37
2019-05-20T05:46:20.795Z,23.35
2019-05-20T05:48:47.333Z,22.15
2019-05-20T05:51:13.848Z,21.70
2019-05-20T05:53:40.376Z,19.75
2019-05-20T05:56:06.929Z,22.02
2019-05-20T05:58:33.457Z,22.82
2019-05-20T06:00:59.988Z,20.92
2019-05-20T06:03:26.528Z,21.85
2019-05-20T06:06:10.280Z,19.98
2019-05-20T06:08:21.498Z,21.77
2019-05-20T06:10:48.020Z,22.37
2019-05-20T06:13:14.655Z,23.10
2019-05-20T06:15:41.190Z,22.55
2019-05-20T06:18:07.720Z,22.30
2019-05-20T06:20:34.304Z,22.37
2019-05-20T06:23:00.844Z,22.77
2019-05-20T06:25:27.389Z,22.07
2019-05-20T06:27:54.351Z,22.48
2019-05-20T06:30:35.017Z,21.15
2019-05-20T06:33:03.012Z,21.87
2019-05-20T06:35:29.642Z,21.02
2019-05-20T06:37:58.277Z,19.67
2019-05-20T06:40:24.834Z,20.45
2019-05-20T06:42:51.394Z,21.02
2019-05-20T06:45:17.923Z,21.10
2019-05-20T06:47:44.538Z,18.45
2019-05-20T06:50:11.070Z,19.35
2019-05-20T06:52:37.609Z,19.57
2019-05-20T06:55:06.571Z,20.02
2019-05-20T06:57:33.185Z,19.92
2019-05-20T06:59:59.716Z,19.55
2019-05-20T07:02:26.256Z,18.17
2019-05-20T07:04:54.486Z,18.98
2019-05-20T07:07:21.573Z,20.68
2019-05-20T07:09:48.228Z,18.98
2019-05-20T07:12:14.758Z,18.48
2019-05-20T07:14:41.337Z,18.98
2019-05-20T07:17:07.876Z,18.50
2019-05-20T07:19:34.521Z,20.35
2019-05-20T07:22:01.040Z,19.05
2019-05-20T07:24:27.594Z,19.52
2019-05-20T07:30:07.318Z,21.20
2019-05-20T07:32:33.939Z,19.35
2019-05-20T07:35:06.019Z,18.23
2019-05-20T07:37:32.944Z,19.37
2019-05-20T07:39:59.661Z,19.05
2019-05-20T07:42:26.179Z,20.32
2019-05-20T07:44:52.709Z,20.35
2019-05-20T07:47:19.440Z,16.95
2019-05-20T07:49:51.625Z,18.95
2019-05-20T07:52:18.848Z,17.60
2019-05-20T07:54:47.001Z,18.70
2019-05-20T07:57:16.318Z,18.67
2019-05-20T07:59:44.742Z,18.65
2019-05-20T08:02:17.575Z,20.08
2019-05-20T08:04:44.133Z,17.75
2019-05-20T08:07:26.866Z,17.62
2019-05-20T08:09:45.349Z,16.70
2019-05-20T08:12:07.517Z,15.88
2019-05-20T08:14:34.099Z,14.40
2019-05-20T08:17:00.667Z,14.38
2019-05-20T08:19:27.194Z,13.98
2019-05-20T08:21:54.119Z,14.35
2019-05-20T08:24:20.647Z,14.05
2019-05-20T08:26:48.482Z,17.23
2019-05-20T08:29:15.038Z,12.07
2019-05-20T08:31:41.593Z,16.12
2019-05-20T08:34:08.101Z,13.20
2019-05-20T08:36:34.636Z,13.00
2019-05-20T08:39:01.192Z,14.78
2019-05-20T08:41:27.792Z,13.62
2019-05-20T08:43:54.414Z,14.30
2019-05-20T08:46:21.016Z,15.72
2019-05-20T08:48:47.526Z,15.90
2019-05-20T08:51:18.121Z,15.88
2019-05-20T08:53:44.643Z,16.15
2019-05-20T08:56:11.261Z,16.45
2019-05-20T08:58:37.900Z,14.83
2019-05-20T09:01:04.502Z,15.80
2019-05-20T09:03:31.050Z,17.02
2019-05-20T09:05:57.641Z,17.62
2019-05-20T09:08:24.162Z,16.42
2019-05-20T09:10:50.703Z,17.62
2019-05-20T09:13:17.219Z,16.37
2019-05-20T09:15:45.483Z,16.73
2019-05-20T09:18:12.175Z,18.02
2019-05-20T09:20:38.745Z,16.70
2019-05-20T09:23:05.331Z,15.95
2019-05-20T09:25:32.082Z,17.25
2019-05-20T09:27:59.897Z,19.32
2019-05-20T09:30:26.449Z,18.67
2019-05-20T09:32:54.178Z,19.70
2019-05-20T09:35:20.811Z,19.05
2019-05-20T09:37:47.340Z,18.60
2019-05-20T09:40:38.246Z,20.57
2019-05-20T09:43:05.534Z,21.48
2019-05-20T09:45:32.474Z,21.02
2019-05-20T09:47:59.056Z,22.80
2019-05-20T09:50:25.602Z,20.75
2019-05-20T09:52:52.126Z,20.40
2019-05-20T09:55:18.658Z,21.87
2019-05-20T09:57:46.206Z,22.58
2019-05-20T10:00:12.876Z,21.30
2019-05-20T10:02:39.420Z,24.12
2019-05-20T10:05:06.137Z,23.55
2019-05-20T10:07:32.668Z,25.65
2019-05-20T10:09:59.186Z,25.57
2019-05-20T10:12:44.251Z,23.77
2019-05-20T10:14:54.156Z,23.62
2019-05-20T10:17:20.743Z,24.45
2019-05-20T10:19:47.262Z,23.35
2019-05-20T10:22:13.842Z,22.70
2019-05-20T10:24:40.506Z,22.70
2019-05-20T10:27:07.103Z,25.02
2019-05-20T10:29:33.630Z,23.27
2019-05-20T10:32:00.262Z,24.80
2019-05-20T10:34:26.764Z,21.85
2019-05-20T10:36:53.296Z,23.87
2019-05-20T10:39:19.810Z,24.47
2019-05-20T10:41:47.344Z,24.05
2019-05-20T10:44:13.863Z,25.02
2019-05-20T10:46:40.396Z,25.10
2019-05-20T10:49:06.918Z,25.68
2019-05-20T10:51:35.486Z,24.70
2019-05-20T10:54:02.028Z,28.83
2019-05-20T10:56:28.572Z,30.65
2019-05-20T10:58:56.310Z,30.62
2019-05-20T11:01:22.845Z,31.77
2019-05-20T11:03:49.380Z,27.13
2019-05-20T11:06:15.900Z,33.65
2019-05-20T11:08:42.430Z,35.10
2019-05-20T11:11:13.815Z,34.75
2019-05-20T11:13:38.509Z,37.75
2019-05-20T11:16:05.048Z,37.30
2019-05-20T11:18:31.580Z,43.42
2019-05-20T11:20:58.123Z,43.10
2019-05-20T11:23:24.653Z,40.30
2019-05-20T11:25:51.176Z,42.38
2019-05-20T11:28:17.711Z,43.28
2019-05-20T11:30:44.264Z,41.30
2019-05-20T11:33:11.276Z,39.23
2019-05-20T11:35:37.798Z,37.45
2019-05-20T11:38:04.410Z,36.60
2019-05-20T11:40:30.899Z,34.95
2019-05-20T11:42:57.436Z,32.45
2019-05-20T11:45:24.038Z,35.08
2019-05-20T11:47:50.582Z,38.78
2019-05-20T11:50:17.277Z,39.45
2019-05-20T11:52:43.998Z,36.20
2019-05-20T11:55:10.788Z,36.63
2019-05-20T11:57:37.625Z,34.33
2019-05-20T12:00:11.491Z,35.48
2019-05-20T12:02:38.035Z,44.38
2019-05-20T12:05:05.974Z,33.35
2019-05-20T12:07:32.507Z,35.65
2019-05-20T12:09:59.061Z,36.50
2019-05-20T12:12:25.577Z,37.70
2019-05-20T12:14:52.101Z,37.55
2019-05-20T12:17:18.629Z,40.65
2019-05-20T12:19:45.163Z,34.40
2019-05-20T12:22:11.688Z,37.05
2019-05-20T12:24:38.270Z,35.10
2019-05-20T12:27:04.766Z,35.65
2019-05-20T12:29:31.292Z,30.62
2019-05-20T12:31:57.947Z,34.50
2019-05-20T12:34:24.706Z,24.43
2019-05-20T12:36:51.237Z,32.35
2019-05-20T12:39:17.794Z,32.73
2019-05-20T12:41:44.308Z,32.83
2019-05-20T12:44:13.112Z,28.07
2019-05-20T12:46:39.280Z,32.45
2019-05-20T12:49:05.929Z,31.40
2019-05-20T12:51:32.614Z,31.85
2019-05-20T12:53:59.144Z,26.70
2019-05-20T12:56:25.726Z,37.35
2019-05-20T12:58:52.404Z,33.02
2019-05-20T13:01:18.935Z,32.65
2019-05-20T13:03:45.534Z,36.65
2019-05-20T13:06:12.180Z,34.30
2019-05-20T13:08:38.793Z,35.30
2019-05-20T13:11:05.409Z,35.25
2019-05-20T13:13:32.015Z,37.05
2019-05-20T13:15:58.544Z,29.57
2019-05-20T13:18:25.082Z,32.30
2019-05-20T13:20:51.619Z,34.33
2019-05-20T13:23:18.151Z,34.08
2019-05-20T13:25:44.686Z,35.25
2019-05-20T13:28:11.268Z,29.82
2019-05-20T13:30:37.918Z,34.48
2019-05-20T13:33:04.537Z,36.35
2019-05-20T13:35:31.131Z,32.98
2019-05-20T13:37:57.852Z,36.58
2019-05-20T13:40:24.403Z,35.28
2019-05-20T13:42:50.929Z,35.78
2019-05-20T13:45:17.672Z,34.88
2019-05-20T13:47:44.200Z,34.18
2019-05-20T13:50:11.129Z,33.95
2019-05-20T13:52:37.661Z,33.73
2019-05-20T13:55:04.996Z,33.42
2019-05-20T13:57:31.547Z,37.00
2019-05-20T13:59:58.122Z,34.45
2019-05-20T14:02:24.670Z,30.77
2019-05-20T14:04:51.208Z,34.13
2019-05-20T14:07:17.765Z,33.85
2019-05-20T14:09:44.307Z,33.92
2019-05-20T14:12:10.854Z,30.48
2019-05-20T14:14:37.397Z,27.45
2019-05-20T14:17:03.940Z,29.70
2019-05-20T14:19:30.605Z,29.95
2019-05-20T14:21:57.161Z,34.78
2019-05-20T14:24:23.754Z,36.20
2019-05-20T14:26:50.297Z,34.63
2019-05-20T14:29:16.856Z,33.45
2019-05-20T14:31:43.412Z,29.80
2019-05-20T14:34:09.931Z,28.55
2019-05-20T14:36:39.788Z,26.50
2019-05-20T14:39:05.332Z,27.98
2019-05-20T14:41:31.888Z,28.92
2019-05-20T14:44:00.436Z,29.98
2019-05-20T14:46:27.686Z,30.70
2019-05-20T14:48:54.415Z,27.70
2019-05-20T14:51:21.049Z,25.37
2019-05-20T14:53:47.567Z,24.60
2019-05-20T14:56:14.101Z,23.98
2019-05-20T14:58:40.612Z,21.70
2019-05-20T15:01:07.218Z,20.27
2019-05-20T15:03:33.860Z,20.65
2019-05-20T15:06:00.359Z,22.55
2019-05-20T15:08:26.895Z,23.12
2019-05-20T15:10:53.443Z,22.82
2019-05-20T15:13:19.993Z,23.50
2019-05-20T15:15:48.597Z,24.75
2019-05-20T15:18:14.969Z,23.20
2019-05-20T15:20:41.504Z,25.23
2019-05-20T15:23:08.048Z,25.17
2019-05-20T15:25:34.706Z,23.73
2019-05-20T15:28:01.236Z,27.00
2019-05-20T15:30:27.774Z,26.93
2019-05-20T15:32:55.023Z,27.40
2019-05-20T15:35:21.686Z,26.87
2019-05-20T15:37:48.292Z,25.43
2019-05-20T15:40:16.838Z,28.42
2019-05-20T15:42:43.379Z,25.60
2019-05-20T15:45:10.404Z,22.67
2019-05-20T15:47:37.051Z,24.47
2019-05-20T15:50:05.952Z,24.50
2019-05-20T15:52:32.498Z,24.10
2019-05-20T15:54:59.043Z,24.37
2019-05-20T15:57:25.585Z,23.95
2019-05-20T15:59:54.258Z,26.07
2019-05-20T16:02:20.792Z,26.00
2019-05-20T16:04:47.316Z,27.05
2019-05-20T16:07:13.900Z,27.13
2019-05-20T16:09:40.469Z,25.60
2019-05-20T16:12:07.035Z,25.62
2019-05-20T16:14:34.879Z,29.02
2019-05-20T16:17:01.453Z,29.72
2019-05-20T16:19:28.071Z,27.25
2019-05-20T16:21:54.624Z,28.23
2019-05-20T16:24:21.152Z,27.40
2019-05-20T16:26:47.687Z,28.12
2019-05-20T16:29:15.239Z,28.35
2019-05-20T16:31:41.779Z,27.65
2019-05-20T16:34:08.306Z,31.17
2019-05-20T16:36:34.870Z,30.37
2019-05-20T16:39:01.492Z,30.55
2019-05-20T16:41:28.133Z,29.90
2019-05-20T16:43:54.646Z,30.97
2019-05-20T16:46:21.178Z,35.33
2019-05-20T16:48:47.807Z,31.95
2019-05-20T16:51:14.354Z,28.23
2019-05-20T16:53:40.912Z,33.58
2019-05-20T16:56:07.444Z,31.00
2019-05-20T16:58:35.087Z,30.02
2019-05-20T17:01:01.610Z,30.02
2019-05-20T17:03:28.143Z,27.65
2019-05-20T17:05:54.663Z,29.98
2019-05-20T17:08:21.247Z,33.28
2019-05-20T17:10:47.771Z,32.15
2019-05-20T17:13:14.302Z,29.18
2019-05-20T17:15:40.881Z,33.23
2019-05-20T17:18:07.485Z,32.30
2019-05-20T17:20:34.012Z,28.90
2019-05-20T17:23:00.551Z,31.55
2019-05-20T17:25:27.093Z,30.37
2019-05-20T17:27:53.632Z,28.10
2019-05-20T17:30:20.168Z,29.80
2019-05-20T17:32:46.730Z,29.42
2019-05-20T17:35:13.461Z,33.53
2019-05-20T17:37:39.986Z,29.55
2019-05-20T17:40:07.646Z,31.30
2019-05-20T17:42:34.186Z,31.27
2019-05-20T17:45:00.819Z,29.00
2019-05-20T17:47:27.363Z,30.02
2019-05-20T17:49:53.890Z,30.08
2019-05-20T17:52:20.415Z,30.20
2019-05-20T17:54:46.948Z,29.75
2019-05-20T17:57:13.461Z,30.15
2019-05-20T17:59:39.999Z,32.40
2019-05-20T18:02:08.423Z,30.90
2019-05-20T18:04:34.970Z,30.48
2019-05-20T18:07:01.541Z,29.27
2019-05-20T18:09:29.993Z,28.55
2019-05-20T18:11:56.545Z,28.98
2019-05-20T18:14:23.069Z,30.97
2019-05-20T18:16:49.667Z,28.17
2019-05-20T18:19:16.232Z,27.42
2019-05-20T18:21:42.753Z,26.93
2019-05-20T18:24:09.289Z,30.43
2019-05-20T18:26:35.835Z,28.75
2019-05-20T18:29:02.345Z,28.15
2019-05-20T18:31:32.304Z,30.08
2019-05-20T18:33:57.378Z,32.45
2019-05-20T18:36:23.965Z,34.63
2019-05-20T18:38:50.491Z,35.73
2019-05-20T18:41:17.021Z,32.78
2019-05-20T18:43:43.558Z,30.70
2019-05-20T18:46:10.093Z,34.40
2019-05-20T18:48:36.705Z,33.08
2019-05-20T18:51:03.253Z,30.00
2019-05-20T18:53:29.790Z,30.20
2019-05-20T18:55:56.342Z,28.23
2019-05-20T18:58:22.888Z,27.75
2019-05-20T19:00:49.425Z,29.40
2019-05-20T19:03:16.039Z,30.20
2019-05-20T19:05:42.556Z,29.82
2019-05-20T19:08:09.322Z,30.70
2019-05-20T19:10:35.915Z,27.20
2019-05-20T19:13:02.870Z,27.45
2019-05-20T19:15:29.656Z,29.35
2019-05-20T19:17:56.210Z,28.60
2019-05-20T19:20:23.248Z,26.05
2019-05-20T19:22:49.945Z,27.55
2019-05-20T19:25:16.476Z,26.42
2019-05-20T19:27:43.046Z,27.60
2019-05-20T19:30:10.197Z,27.32
2019-05-20T19:32:36.827Z,27.13
2019-05-20T19:35:05.967Z,25.48
2019-05-20T19:37:32.495Z,27.13
2019-05-20T19:39:59.038Z,29.50
2019-05-20T19:42:25.558Z,30.08
2019-05-20T19:44:52.154Z,30.37
2019-05-20T19:47:18.746Z,26.45
2019-05-20T19:49:45.270Z,29.27
2019-05-20T19:52:11.780Z,30.32
2019-05-20T19:54:38.425Z,28.12
2019-05-20T19:57:06.864Z,25.27
2019-05-20T19:59:33.407Z,26.45
2019-05-20T20:02:00.004Z,27.55
2019-05-20T20:04:26.700Z,27.70
2019-05-20T20:06:53.242Z,31.23
2019-05-20T20:09:19.878Z,31.52
2019-05-20T20:11:46.412Z,34.73
2019-05-20T20:14:12.976Z,35.48
2019-05-20T20:16:39.508Z,38.65
2019-05-20T20:19:06.100Z,39.05
2019-05-20T20:21:32.658Z,41.42
2019-05-20T20:23:59.190Z,45.38
2019-05-20T20:26:25.727Z,47.00
2019-05-20T20:28:52.253Z,48.92
2019-05-20T20:31:18.791Z,56.40
2019-05-20T20:33:45.323Z,54.50
2019-05-20T20:36:11.909Z,51.45
2019-05-20T20:38:38.422Z,56.33
2019-05-20T20:41:04.967Z,70.25
2019-05-20T20:43:32.242Z,59.53
2019-05-20T20:45:58.939Z,61.63
2019-05-20T20:48:25.455Z,75.47
2019-05-20T20:50:52.113Z,39.25
2019-05-20T20:53:18.677Z,43.42
2019-05-20T20:55:45.226Z,46.55
2019-05-20T20:58:11.739Z,71.05
2019-05-20T21:00:38.310Z,90.75
2019-05-20T21:03:04.836Z,62.17
2019-05-20T21:05:31.365Z,97.88
2019-05-20T21:07:57.904Z,101.22
2019-05-20T21:10:25.300Z,87.78
2019-05-20T21:12:51.905Z,96.37
2019-05-20T21:15:18.426Z,94.75
2019-05-20T21:17:44.967Z,54.03
2019-05-20T21:20:11.605Z,73.95
2019-05-20T21:22:38.138Z,55.17
2019-05-20T21:25:05.489Z,43.73
2019-05-20T21:27:32.327Z,32.53
2019-05-20T21:29:58.900Z,29.05
2019-05-20T21:32:25.448Z,36.55
2019-05-20T21:34:52.056Z,52.10
2019-05-20T21:37:18.583Z,47.45
2019-05-20T21:39:45.205Z,53.92
2019-05-20T21:42:11.743Z,40.20
2019-05-20T21:44:38.279Z,25.68
2019-05-20T21:47:04.826Z,25.95
2019-05-20T21:49:31.349Z,43.10
2019-05-20T21:51:57.877Z,34.10
2019-05-20T21:54:24.390Z,42.90
2019-05-20T21:56:51.014Z,39.63
2019-05-20T21:59:17.553Z,45.35
2019-05-20T22:01:44.171Z,37.70
2019-05-20T22:04:10.684Z,28.30
2019-05-20T22:06:37.324Z,33.67
2019-05-20T22:09:04.926Z,25.25
2019-05-20T22:11:31.462Z,17.00
2019-05-20T22:13:57.976Z,15.20
2019-05-20T22:16:24.611Z,17.85
2019-05-20T22:18:51.167Z,22.27
2019-05-20T22:21:19.627Z,34.65
2019-05-20T22:23:48.072Z,47.55
2019-05-20T22:26:14.604Z,67.12
2019-05-20T22:28:41.123Z,49.23
2019-05-20T22:31:07.764Z,50.58
2019-05-20T22:33:41.599Z,46.68
2019-05-20T22:36:02.892Z,42.50
2019-05-20T22:38:29.422Z,42.13
2019-05-20T22:40:55.936Z,41.63
2019-05-20T22:43:22.611Z,45.23
2019-05-20T22:45:49.130Z,43.28
2019-05-20T22:48:15.768Z,37.48
2019-05-20T22:50:42.307Z,36.88
2019-05-20T22:53:08.945Z,36.55
2019-05-20T22:55:35.471Z,36.75
2019-05-20T22:58:02.103Z,33.65
2019-05-20T23:00:28.612Z,34.58
2019-05-20T23:02:55.160Z,41.40
2019-05-20T23:05:21.695Z,32.28
2019-05-20T23:07:48.311Z,27.60
2019-05-20T23:10:15.401Z,26.60
2019-05-20T23:12:41.929Z,26.48
2019-05-20T23:15:08.852Z,22.30
2019-05-20T23:17:35.435Z,22.80
2019-05-20T23:20:04.421Z,19.57
2019-05-20T23:22:30.959Z,18.70
2019-05-20T23:24:57.569Z,17.05
2019-05-20T23:27:24.091Z,18.15
2019-05-20T23:29:50.619Z,16.30
2019-05-20T23:32:17.189Z,18.35
2019-05-20T23:34:43.730Z,19.57
2019-05-20T23:37:10.340Z,20.50
2019-05-20T23:39:36.876Z,22.40
2019-05-20T23:42:03.390Z,22.50
2019-05-20T23:44:29.966Z,21.35
2019-05-20T23:46:56.477Z,23.60
2019-05-20T23:49:23.022Z,28.55
2019-05-20T23:51:49.751Z,31.20
2019-05-20T23:54:16.286Z,32.85
2019-05-20T23:56:42.808Z,34.92
2019-05-20T23:59:09.382Z,38.30
